sensor_id;sensor_type;location;lat;lon;timestamp;temperature;humidity
4050;DHT22;2039;50.894;6.888;2022-08-11T00:00:39;23.70;1.00
4050;DHT22;2039;50.894;6.888;2022-08-11T00:03:09;23.60;1.00
4050;DHT22;2039;50.894;6.888;2022-08-11T00:05:46;23.50;1.00
4050;DHT22;2039;50.894;6.888;2022-08-11T00:08:21;23.50;1.00
4050;DHT22;2039;50.894;6.888;2022-08-11T00:11:04;23.50;1.00
4050;DHT22;2039;50.894;6.888;2022-08-11T00:13:38;23.40;1.00
4050;DHT22;2039;50.894;6.888;2022-08-11T00:16:22;23.30;1.00
4050;DHT22;2039;50.894;6.888;2022-08-11T00:18:54;23.30;1.00
4050;DHT22;2039;50.894;6.888;2022-08-11T00:21:21;23.30;1.00
4050;DHT22;2039;50.894;6.888;2022-08-11T00:23:59;23.20;1.00
4050;DHT22;2039;50.894;6.888;2022-08-11T00:26:27;23.20;1.00
4050;DHT22;2039;50.894;6.888;2022-08-11T00:28:53;23.20;1.00
4050;DHT22;2039;50.894;6.888;2022-08-11T00:31:23;23.20;1.00
4050;DHT22;2039;50.894;6.888;2022-08-11T00:33:51;23.20;1.00
4050;DHT22;2039;50.894;6.888;2022-08-11T00:36:18;23.10;1.00
4050;DHT22;2039;50.894;6.888;2022-08-11T00:38:48;23.10;1.00
4050;DHT22;2039;50.894;6.888;2022-08-11T00:47:04;23.00;1.00
4050;DHT22;2039;50.894;6.888;2022-08-11T00:58:28;22.70;1.00
4050;DHT22;2039;50.894;6.888;2022-08-11T01:10:06;22.40;1.00
4050;DHT22;2039;50.894;6.888;2022-08-11T01:13:05;22.50;1.00
4050;DHT22;2039;50.894;6.888;2022-08-11T01:30:19;22.40;1.00
4050;DHT22;2039;50.894;6.888;2022-08-11T01:38:37;22.20;1.00
4050;DHT22;2039;50.894;6.888;2022-08-11T01:41:28;22.20;1.00
4050;DHT22;2039;50.894;6.888;2022-08-11T01:47:08;22.10;1.00
4050;DHT22;2039;50.894;6.888;2022-08-11T01:58:12;21.90;1.00
4050;DHT22;2039;50.894;6.888;2022-08-11T02:03:55;21.80;1.00
4050;DHT22;2039;50.894;6.888;2022-08-11T02:12:53;21.70;1.00
4050;DHT22;2039;50.894;6.888;2022-08-11T02:20:36;21.60;1.00
4050;DHT22;2039;50.894;6.888;2022-08-11T02:23:38;21.60;1.00
4050;DHT22;2039;50.894;6.888;2022-08-11T02:26:17;21.50;1.00
4050;DHT22;2039;50.894;6.888;2022-08-11T02:31:37;21.40;1.00
4050;DHT22;2039;50.894;6.888;2022-08-11T02:34:41;21.40;1.00
4050;DHT22;2039;50.894;6.888;2022-08-11T02:40:21;21.20;1.00
4050;DHT22;2039;50.894;6.888;2022-08-11T02:51:13;21.20;1.00
4050;DHT22;2039;50.894;6.888;2022-08-11T02:53:48;21.10;1.00
4050;DHT22;2039;50.894;6.888;2022-08-11T02:57:09;21.10;1.00
4050;DHT22;2039;50.894;6.888;2022-08-11T03:10:59;20.90;1.00
4050;DHT22;2039;50.894;6.888;2022-08-11T03:17:05;20.90;1.00
4050;DHT22;2039;50.894;6.888;2022-08-11T03:19:59;20.90;1.00
4050;DHT22;2039;50.894;6.888;2022-08-11T03:22:46;20.80;1.00
4050;DHT22;2039;50.894;6.888;2022-08-11T03:26:09;20.70;1.00
4050;DHT22;2039;50.894;6.888;2022-08-11T03:28:38;20.70;1.00
4050;DHT22;2039;50.894;6.888;2022-08-11T03:34:00;20.60;1.00
4050;DHT22;2039;50.894;6.888;2022-08-11T04:06:52;20.30;1.00
4050;DHT22;2039;50.894;6.888;2022-08-11T04:15:29;20.20;3.60
4050;DHT22;2039;50.894;6.888;2022-08-11T04:24:20;20.20;8.00
4050;DHT22;2039;50.894;6.888;2022-08-11T04:27:06;20.20;9.10
4050;DHT22;2039;50.894;6.888;2022-08-11T04:30:06;20.10;9.50
4050;DHT22;2039;50.894;6.888;2022-08-11T04:38:37;20.10;12.20
4050;DHT22;2039;50.894;6.888;2022-08-11T04:56:04;20.00;17.80
4050;DHT22;2039;50.894;6.888;2022-08-11T05:02:00;20.00;18.00
4050;DHT22;2039;50.894;6.888;2022-08-11T05:13:08;20.10;19.60
4050;DHT22;2039;50.894;6.888;2022-08-11T05:15:57;20.10;21.00
4050;DHT22;2039;50.894;6.888;2022-08-11T05:19:03;20.20;21.20
4050;DHT22;2039;50.894;6.888;2022-08-11T05:21:53;20.20;22.80
4050;DHT22;2039;50.894;6.888;2022-08-11T05:24:44;20.20;23.30
4050;DHT22;2039;50.894;6.888;2022-08-11T05:27:49;20.30;23.70
4050;DHT22;2039;50.894;6.888;2022-08-11T05:30:35;20.30;24.10
4050;DHT22;2039;50.894;6.888;2022-08-11T05:36:59;20.40;23.30
4050;DHT22;2039;50.894;6.888;2022-08-11T05:39:32;20.50;22.00
4050;DHT22;2039;50.894;6.888;2022-08-11T05:42:21;20.40;22.20
4050;DHT22;2039;50.894;6.888;2022-08-11T05:45:17;20.50;20.50
4050;DHT22;2039;50.894;6.888;2022-08-11T05:48:02;20.50;18.40
4050;DHT22;2039;50.894;6.888;2022-08-11T05:51:00;20.50;15.50
4050;DHT22;2039;50.894;6.888;2022-08-11T05:53:56;20.50;11.70
4050;DHT22;2039;50.894;6.888;2022-08-11T05:56:51;20.50;9.80
4050;DHT22;2039;50.894;6.888;2022-08-11T05:59:19;20.50;9.10
4050;DHT22;2039;50.894;6.888;2022-08-11T06:01:46;20.60;8.30
4050;DHT22;2039;50.894;6.888;2022-08-11T06:04:30;20.50;5.70
4050;DHT22;2039;50.894;6.888;2022-08-11T06:07:10;20.60;1.00
4050;DHT22;2039;50.894;6.888;2022-08-11T06:09:48;20.60;1.00
4050;DHT22;2039;50.894;6.888;2022-08-11T06:12:25;20.60;1.00
4050;DHT22;2039;50.894;6.888;2022-08-11T06:14:55;20.70;1.00
4050;DHT22;2039;50.894;6.888;2022-08-11T06:17:24;20.70;1.00
4050;DHT22;2039;50.894;6.888;2022-08-11T06:19:51;20.80;1.00
4050;DHT22;2039;50.894;6.888;2022-08-11T06:22:24;20.90;1.00
4050;DHT22;2039;50.894;6.888;2022-08-11T06:25:01;20.90;1.00
4050;DHT22;2039;50.894;6.888;2022-08-11T06:27:30;20.90;1.00
4050;DHT22;2039;50.894;6.888;2022-08-11T06:29:57;21.00;1.00
4050;DHT22;2039;50.894;6.888;2022-08-11T06:32:31;21.10;1.00
4050;DHT22;2039;50.894;6.888;2022-08-11T06:38:09;21.20;1.00
4050;DHT22;2039;50.894;6.888;2022-08-11T06:40:52;21.30;1.00
4050;DHT22;2039;50.894;6.888;2022-08-11T06:46:43;21.50;1.00
4050;DHT22;2039;50.894;6.888;2022-08-11T06:49:14;21.50;1.00
4050;DHT22;2039;50.894;6.888;2022-08-11T06:52:01;21.60;1.00
4050;DHT22;2039;50.894;6.888;2022-08-11T06:54:31;21.70;1.00
4050;DHT22;2039;50.894;6.888;2022-08-11T06:56:58;21.70;1.00
4050;DHT22;2039;50.894;6.888;2022-08-11T06:59:44;21.80;1.00
4050;DHT22;2039;50.894;6.888;2022-08-11T07:03:11;21.80;1.00
4050;DHT22;2039;50.894;6.888;2022-08-11T07:05:53;21.90;1.00
4050;DHT22;2039;50.894;6.888;2022-08-11T07:14:53;22.10;1.00
4050;DHT22;2039;50.894;6.888;2022-08-11T07:17:44;22.20;1.00
4050;DHT22;2039;50.894;6.888;2022-08-11T07:20:35;22.30;1.00
4050;DHT22;2039;50.894;6.888;2022-08-11T07:23:20;22.40;1.00
4050;DHT22;2039;50.894;6.888;2022-08-11T07:26:05;22.50;1.00
4050;DHT22;2039;50.894;6.888;2022-08-11T07:28:50;22.50;1.00
4050;DHT22;2039;50.894;6.888;2022-08-11T07:34:34;22.70;1.00
4050;DHT22;2039;50.894;6.888;2022-08-11T07:37:09;22.80;1.00
4050;DHT22;2039;50.894;6.888;2022-08-11T07:39:36;22.80;1.00
4050;DHT22;2039;50.894;6.888;2022-08-11T07:42:12;22.90;1.00
4050;DHT22;2039;50.894;6.888;2022-08-11T07:44:43;22.90;1.00
4050;DHT22;2039;50.894;6.888;2022-08-11T07:47:28;23.10;1.00
4050;DHT22;2039;50.894;6.888;2022-08-11T07:50:13;23.10;1.00
4050;DHT22;2039;50.894;6.888;2022-08-11T07:52:59;23.20;1.00
4050;DHT22;2039;50.894;6.888;2022-08-11T07:55:25;23.30;1.00
4050;DHT22;2039;50.894;6.888;2022-08-11T07:57:52;23.40;1.00
4050;DHT22;2039;50.894;6.888;2022-08-11T08:00:41;23.40;1.00
4050;DHT22;2039;50.894;6.888;2022-08-11T08:03:29;23.50;1.00
4050;DHT22;2039;50.894;6.888;2022-08-11T08:06:14;23.60;1.00
4050;DHT22;2039;50.894;6.888;2022-08-11T08:09:00;23.70;1.00
4050;DHT22;2039;50.894;6.888;2022-08-11T08:11:45;23.80;1.00
4050;DHT22;2039;50.894;6.888;2022-08-11T08:14:31;23.90;1.00
4050;DHT22;2039;50.894;6.888;2022-08-11T08:17:16;24.00;1.00
4050;DHT22;2039;50.894;6.888;2022-08-11T08:20:00;24.10;1.00
4050;DHT22;2039;50.894;6.888;2022-08-11T08:22:28;24.30;1.00
4050;DHT22;2039;50.894;6.888;2022-08-11T08:24:55;24.40;1.00
4050;DHT22;2039;50.894;6.888;2022-08-11T08:27:21;24.60;1.00
4050;DHT22;2039;50.894;6.888;2022-08-11T08:29:50;24.60;1.00
4050;DHT22;2039;50.894;6.888;2022-08-11T08:32:38;24.70;1.00
4050;DHT22;2039;50.894;6.888;2022-08-11T08:35:05;24.80;1.00
4050;DHT22;2039;50.894;6.888;2022-08-11T08:37:32;24.80;1.00
4050;DHT22;2039;50.894;6.888;2022-08-11T08:39:58;24.80;1.00
4050;DHT22;2039;50.894;6.888;2022-08-11T08:42:40;24.90;1.00
4050;DHT22;2039;50.894;6.888;2022-08-11T08:45:09;25.00;1.00
4050;DHT22;2039;50.894;6.888;2022-08-11T08:47:37;25.10;1.00
4050;DHT22;2039;50.894;6.888;2022-08-11T08:50:13;25.20;1.00
4050;DHT22;2039;50.894;6.888;2022-08-11T08:52:59;25.40;1.00
4050;DHT22;2039;50.894;6.888;2022-08-11T08:55:29;25.40;1.00
4050;DHT22;2039;50.894;6.888;2022-08-11T08:57:56;25.50;1.00
4050;DHT22;2039;50.894;6.888;2022-08-11T09:00:40;25.50;1.00
4050;DHT22;2039;50.894;6.888;2022-08-11T09:03:07;25.60;1.00
4050;DHT22;2039;50.894;6.888;2022-08-11T09:05:33;25.60;1.00
4050;DHT22;2039;50.894;6.888;2022-08-11T09:07:59;25.70;1.00
4050;DHT22;2039;50.894;6.888;2022-08-11T09:10:26;25.80;1.00
4050;DHT22;2039;50.894;6.888;2022-08-11T09:12:55;25.90;1.00
4050;DHT22;2039;50.894;6.888;2022-08-11T09:15:23;25.90;1.00
4050;DHT22;2039;50.894;6.888;2022-08-11T09:17:53;26.00;1.00
4050;DHT22;2039;50.894;6.888;2022-08-11T09:20:30;26.10;1.00
4050;DHT22;2039;50.894;6.888;2022-08-11T09:23:01;26.30;1.00
4050;DHT22;2039;50.894;6.888;2022-08-11T09:25:49;26.30;1.00
4050;DHT22;2039;50.894;6.888;2022-08-11T09:28:36;26.40;1.00
4050;DHT22;2039;50.894;6.888;2022-08-11T09:31:02;26.50;1.00
4050;DHT22;2039;50.894;6.888;2022-08-11T09:33:30;26.70;1.00
4050;DHT22;2039;50.894;6.888;2022-08-11T09:35:57;26.70;1.00
4050;DHT22;2039;50.894;6.888;2022-08-11T09:38:45;26.70;1.00
4050;DHT22;2039;50.894;6.888;2022-08-11T09:41:30;26.80;1.00
4050;DHT22;2039;50.894;6.888;2022-08-11T09:43:57;26.80;1.00
4050;DHT22;2039;50.894;6.888;2022-08-11T09:46:43;26.80;1.00
4050;DHT22;2039;50.894;6.888;2022-08-11T09:49:09;26.90;1.00
4050;DHT22;2039;50.894;6.888;2022-08-11T09:51:35;27.00;1.00
4050;DHT22;2039;50.894;6.888;2022-08-11T09:54:02;27.20;1.00
4050;DHT22;2039;50.894;6.888;2022-08-11T09:56:31;27.30;1.00
4050;DHT22;2039;50.894;6.888;2022-08-11T09:59:21;27.40;1.00
4050;DHT22;2039;50.894;6.888;2022-08-11T10:01:49;27.50;1.00
4050;DHT22;2039;50.894;6.888;2022-08-11T10:04:34;27.60;1.00
4050;DHT22;2039;50.894;6.888;2022-08-11T10:07:03;27.70;1.00
4050;DHT22;2039;50.894;6.888;2022-08-11T10:09:40;27.90;1.00
4050;DHT22;2039;50.894;6.888;2022-08-11T10:12:13;28.20;1.00
4050;DHT22;2039;50.894;6.888;2022-08-11T10:14:48;28.40;1.00
4050;DHT22;2039;50.894;6.888;2022-08-11T10:17:40;28.50;1.00
4050;DHT22;2039;50.894;6.888;2022-08-11T10:20:29;28.60;1.00
4050;DHT22;2039;50.894;6.888;2022-08-11T10:22:58;28.80;1.00
4050;DHT22;2039;50.894;6.888;2022-08-11T10:25:42;29.00;1.00
4050;DHT22;2039;50.894;6.888;2022-08-11T10:28:30;29.10;1.00
4050;DHT22;2039;50.894;6.888;2022-08-11T10:30:57;29.10;1.00
4050;DHT22;2039;50.894;6.888;2022-08-11T10:33:43;29.00;1.00
4050;DHT22;2039;50.894;6.888;2022-08-11T10:36:26;29.30;1.00
4050;DHT22;2039;50.894;6.888;2022-08-11T10:38:54;29.40;1.00
4050;DHT22;2039;50.894;6.888;2022-08-11T10:41:20;29.50;1.00
4050;DHT22;2039;50.894;6.888;2022-08-11T10:44:06;29.70;1.00
4050;DHT22;2039;50.894;6.888;2022-08-11T10:46:34;30.00;1.00
4050;DHT22;2039;50.894;6.888;2022-08-11T10:49:20;30.30;1.00
4050;DHT22;2039;50.894;6.888;2022-08-11T10:51:46;30.00;1.00
4050;DHT22;2039;50.894;6.888;2022-08-11T10:54:32;30.10;1.00
4050;DHT22;2039;50.894;6.888;2022-08-11T10:57:18;30.30;1.00
4050;DHT22;2039;50.894;6.888;2022-08-11T11:00:04;30.40;1.00
4050;DHT22;2039;50.894;6.888;2022-08-11T11:02:33;30.70;1.00
4050;DHT22;2039;50.894;6.888;2022-08-11T11:05:08;30.90;1.00
4050;DHT22;2039;50.894;6.888;2022-08-11T11:07:42;30.90;1.00
4050;DHT22;2039;50.894;6.888;2022-08-11T11:10:12;30.80;1.00
4050;DHT22;2039;50.894;6.888;2022-08-11T11:12:44;30.60;1.00
4050;DHT22;2039;50.894;6.888;2022-08-11T11:15:34;30.50;1.00
4050;DHT22;2039;50.894;6.888;2022-08-11T11:18:23;30.70;1.00
4050;DHT22;2039;50.894;6.888;2022-08-11T11:20:59;30.80;1.00
4050;DHT22;2039;50.894;6.888;2022-08-11T11:37:51;31.10;1.00
4050;DHT22;2039;50.894;6.888;2022-08-11T11:40:22;31.10;1.00
4050;DHT22;2039;50.894;6.888;2022-08-11T11:42:50;31.10;1.00
4050;DHT22;2039;50.894;6.888;2022-08-11T11:45:18;31.30;1.00
4050;DHT22;2039;50.894;6.888;2022-08-11T11:47:46;31.40;1.00
4050;DHT22;2039;50.894;6.888;2022-08-11T11:50:33;31.50;1.00
4050;DHT22;2039;50.894;6.888;2022-08-11T11:53:01;31.40;1.00
4050;DHT22;2039;50.894;6.888;2022-08-11T11:55:31;31.50;1.00
4050;DHT22;2039;50.894;6.888;2022-08-11T11:58:02;31.80;1.00
4050;DHT22;2039;50.894;6.888;2022-08-11T12:00:47;32.30;1.00
4050;DHT22;2039;50.894;6.888;2022-08-11T12:03:34;32.60;1.00
4050;DHT22;2039;50.894;6.888;2022-08-11T12:06:02;32.60;1.00
4050;DHT22;2039;50.894;6.888;2022-08-11T12:08:29;32.50;1.00
4050;DHT22;2039;50.894;6.888;2022-08-11T12:11:01;32.40;1.00
4050;DHT22;2039;50.894;6.888;2022-08-11T12:13:52;31.90;1.00
4050;DHT22;2039;50.894;6.888;2022-08-11T12:16:19;31.90;1.00
4050;DHT22;2039;50.894;6.888;2022-08-11T12:18:48;32.10;1.00
4050;DHT22;2039;50.894;6.888;2022-08-11T12:21:15;32.40;1.00
4050;DHT22;2039;50.894;6.888;2022-08-11T12:23:43;32.50;1.00
4050;DHT22;2039;50.894;6.888;2022-08-11T12:26:29;32.60;1.00
4050;DHT22;2039;50.894;6.888;2022-08-11T12:29:15;32.20;1.00
4050;DHT22;2039;50.894;6.888;2022-08-11T12:31:42;32.00;1.00
4050;DHT22;2039;50.894;6.888;2022-08-11T12:34:15;32.40;1.00
4050;DHT22;2039;50.894;6.888;2022-08-11T12:37:01;32.40;1.00
4050;DHT22;2039;50.894;6.888;2022-08-11T12:39:43;32.20;1.00
4050;DHT22;2039;50.894;6.888;2022-08-11T12:42:31;32.10;1.00
4050;DHT22;2039;50.894;6.888;2022-08-11T12:45:16;32.20;1.00
4050;DHT22;2039;50.894;6.888;2022-08-11T12:48:09;32.00;1.00
4050;DHT22;2039;50.894;6.888;2022-08-11T12:51:11;32.10;1.00
4050;DHT22;2039;50.894;6.888;2022-08-11T12:56:32;32.50;1.00
4050;DHT22;2039;50.894;6.888;2022-08-11T12:59:21;32.60;1.00
4050;DHT22;2039;50.894;6.888;2022-08-11T13:02:07;32.80;1.00
4050;DHT22;2039;50.894;6.888;2022-08-11T13:04:52;33.00;1.00
4050;DHT22;2039;50.894;6.888;2022-08-11T13:07:27;33.10;1.00
4050;DHT22;2039;50.894;6.888;2022-08-11T13:09:55;32.80;1.00
4050;DHT22;2039;50.894;6.888;2022-08-11T13:12:25;32.90;1.00
4050;DHT22;2039;50.894;6.888;2022-08-11T13:15:16;33.10;1.00
4050;DHT22;2039;50.894;6.888;2022-08-11T13:17:43;32.90;1.00
4050;DHT22;2039;50.894;6.888;2022-08-11T13:20:12;33.00;1.00
4050;DHT22;2039;50.894;6.888;2022-08-11T13:22:41;33.20;1.00
4050;DHT22;2039;50.894;6.888;2022-08-11T13:25:11;33.10;1.00
4050;DHT22;2039;50.894;6.888;2022-08-11T13:27:38;33.00;1.00
4050;DHT22;2039;50.894;6.888;2022-08-11T13:30:04;32.80;1.00
4050;DHT22;2039;50.894;6.888;2022-08-11T13:32:50;33.00;1.00
4050;DHT22;2039;50.894;6.888;2022-08-11T13:35:17;33.00;1.00
4050;DHT22;2039;50.894;6.888;2022-08-11T13:37:46;32.90;1.00
4050;DHT22;2039;50.894;6.888;2022-08-11T13:40:15;32.70;1.00
4050;DHT22;2039;50.894;6.888;2022-08-11T13:42:43;32.80;1.00
4050;DHT22;2039;50.894;6.888;2022-08-11T13:45:09;32.70;1.00
4050;DHT22;2039;50.894;6.888;2022-08-11T13:47:36;32.60;1.00
4050;DHT22;2039;50.894;6.888;2022-08-11T13:50:03;32.70;1.00
4050;DHT22;2039;50.894;6.888;2022-08-11T13:52:30;32.70;1.00
4050;DHT22;2039;50.894;6.888;2022-08-11T13:54:56;32.80;1.00
4050;DHT22;2039;50.894;6.888;2022-08-11T13:57:22;32.90;1.00
4050;DHT22;2039;50.894;6.888;2022-08-11T13:59:52;33.10;1.00
4050;DHT22;2039;50.894;6.888;2022-08-11T14:02:25;33.10;1.00
4050;DHT22;2039;50.894;6.888;2022-08-11T14:05:00;33.20;1.00
4050;DHT22;2039;50.894;6.888;2022-08-11T14:07:33;33.10;1.00
4050;DHT22;2039;50.894;6.888;2022-08-11T14:10:00;33.10;1.00
4050;DHT22;2039;50.894;6.888;2022-08-11T14:12:29;33.10;1.00
4050;DHT22;2039;50.894;6.888;2022-08-11T14:17:51;33.20;1.00
4050;DHT22;2039;50.894;6.888;2022-08-11T14:20:19;33.30;1.00
4050;DHT22;2039;50.894;6.888;2022-08-11T14:22:45;33.30;1.00
4050;DHT22;2039;50.894;6.888;2022-08-11T14:25:14;33.30;1.00
4050;DHT22;2039;50.894;6.888;2022-08-11T14:27:43;33.20;1.00
4050;DHT22;2039;50.894;6.888;2022-08-11T14:30:09;33.30;1.00
4050;DHT22;2039;50.894;6.888;2022-08-11T14:32:56;33.50;1.00
4050;DHT22;2039;50.894;6.888;2022-08-11T14:35:24;33.70;1.00
4050;DHT22;2039;50.894;6.888;2022-08-11T14:37:52;33.80;1.00
4050;DHT22;2039;50.894;6.888;2022-08-11T14:40:18;33.70;1.00
4050;DHT22;2039;50.894;6.888;2022-08-11T14:43:04;33.50;1.00
4050;DHT22;2039;50.894;6.888;2022-08-11T14:45:49;33.50;1.00
4050;DHT22;2039;50.894;6.888;2022-08-11T14:48:33;33.80;1.00
4050;DHT22;2039;50.894;6.888;2022-08-11T14:51:03;33.70;1.00
4050;DHT22;2039;50.894;6.888;2022-08-11T14:53:30;33.50;1.00
4050;DHT22;2039;50.894;6.888;2022-08-11T14:55:56;33.60;1.00
4050;DHT22;2039;50.894;6.888;2022-08-11T14:58:42;33.50;1.00
4050;DHT22;2039;50.894;6.888;2022-08-11T15:01:08;33.40;1.00
4050;DHT22;2039;50.894;6.888;2022-08-11T15:03:55;33.40;1.00
4050;DHT22;2039;50.894;6.888;2022-08-11T15:06:24;33.40;1.00
4050;DHT22;2039;50.894;6.888;2022-08-11T15:08:50;33.50;1.00
4050;DHT22;2039;50.894;6.888;2022-08-11T15:11:24;33.50;1.00
4050;DHT22;2039;50.894;6.888;2022-08-11T15:14:10;33.30;1.00
4050;DHT22;2039;50.894;6.888;2022-08-11T15:16:40;33.20;1.00
4050;DHT22;2039;50.894;6.888;2022-08-11T15:19:28;33.00;1.00
4050;DHT22;2039;50.894;6.888;2022-08-11T15:21:55;33.10;1.00
4050;DHT22;2039;50.894;6.888;2022-08-11T15:24:57;33.20;1.00
4050;DHT22;2039;50.894;6.888;2022-08-11T15:27:24;33.50;1.00
4050;DHT22;2039;50.894;6.888;2022-08-11T15:30:08;33.50;1.00
4050;DHT22;2039;50.894;6.888;2022-08-11T15:32:53;33.20;1.00
4050;DHT22;2039;50.894;6.888;2022-08-11T15:35:38;33.20;1.00
4050;DHT22;2039;50.894;6.888;2022-08-11T15:38:23;33.50;1.00
4050;DHT22;2039;50.894;6.888;2022-08-11T15:40:50;33.80;1.00
4050;DHT22;2039;50.894;6.888;2022-08-11T15:43:44;33.80;1.00
4050;DHT22;2039;50.894;6.888;2022-08-11T15:46:49;34.10;1.00
4050;DHT22;2039;50.894;6.888;2022-08-11T15:49:29;34.50;1.00
4050;DHT22;2039;50.894;6.888;2022-08-11T15:52:05;34.90;1.00
4050;DHT22;2039;50.894;6.888;2022-08-11T15:54:31;35.50;1.00
4050;DHT22;2039;50.894;6.888;2022-08-11T15:56:59;36.00;1.00
4050;DHT22;2039;50.894;6.888;2022-08-11T15:59:35;35.90;1.00
4050;DHT22;2039;50.894;6.888;2022-08-11T16:02:22;35.70;1.00
4050;DHT22;2039;50.894;6.888;2022-08-11T16:05:11;35.80;1.00
4050;DHT22;2039;50.894;6.888;2022-08-11T16:07:40;36.10;1.00
4050;DHT22;2039;50.894;6.888;2022-08-11T16:10:09;36.00;1.00
4050;DHT22;2039;50.894;6.888;2022-08-11T16:12:59;36.10;1.00
4050;DHT22;2039;50.894;6.888;2022-08-11T16:15:39;36.60;1.00
4050;DHT22;2039;50.894;6.888;2022-08-11T16:18:33;36.80;1.00
4050;DHT22;2039;50.894;6.888;2022-08-11T16:21:19;36.10;1.00
4050;DHT22;2039;50.894;6.888;2022-08-11T16:23:49;35.80;1.00
4050;DHT22;2039;50.894;6.888;2022-08-11T16:26:19;35.70;1.00
4050;DHT22;2039;50.894;6.888;2022-08-11T16:28:59;35.80;1.00
4050;DHT22;2039;50.894;6.888;2022-08-11T16:31:26;35.90;1.00
4050;DHT22;2039;50.894;6.888;2022-08-11T16:33:54;36.40;1.00
4050;DHT22;2039;50.894;6.888;2022-08-11T16:36:27;37.00;1.00
4050;DHT22;2039;50.894;6.888;2022-08-11T16:39:13;37.40;1.00
4050;DHT22;2039;50.894;6.888;2022-08-11T16:41:44;37.50;1.00
4050;DHT22;2039;50.894;6.888;2022-08-11T16:44:28;37.20;1.00
4050;DHT22;2039;50.894;6.888;2022-08-11T16:47:16;36.80;1.00
4050;DHT22;2039;50.894;6.888;2022-08-11T16:49:52;36.20;1.00
4050;DHT22;2039;50.894;6.888;2022-08-11T16:52:21;35.80;1.00
4050;DHT22;2039;50.894;6.888;2022-08-11T16:54:54;35.70;1.00
4050;DHT22;2039;50.894;6.888;2022-08-11T16:57:21;36.20;1.00
4050;DHT22;2039;50.894;6.888;2022-08-11T17:00:08;36.60;1.00
4050;DHT22;2039;50.894;6.888;2022-08-11T17:02:51;36.30;1.00
4050;DHT22;2039;50.894;6.888;2022-08-11T17:05:43;35.90;1.00
4050;DHT22;2039;50.894;6.888;2022-08-11T17:08:53;35.60;1.00
4050;DHT22;2039;50.894;6.888;2022-08-11T17:11:44;34.70;1.00
4050;DHT22;2039;50.894;6.888;2022-08-11T17:14:54;34.50;1.00
4050;DHT22;2039;50.894;6.888;2022-08-11T17:17:25;34.70;1.00
4050;DHT22;2039;50.894;6.888;2022-08-11T17:19:54;34.80;1.00
4050;DHT22;2039;50.894;6.888;2022-08-11T17:22:28;34.50;1.00
4050;DHT22;2039;50.894;6.888;2022-08-11T17:25:15;34.80;1.00
4050;DHT22;2039;50.894;6.888;2022-08-11T17:27:45;34.70;1.00
4050;DHT22;2039;50.894;6.888;2022-08-11T17:30:13;34.90;1.00
4050;DHT22;2039;50.894;6.888;2022-08-11T17:32:50;35.10;1.00
4050;DHT22;2039;50.894;6.888;2022-08-11T17:35:36;34.40;1.00
4050;DHT22;2039;50.894;6.888;2022-08-11T17:38:10;34.20;1.00
4050;DHT22;2039;50.894;6.888;2022-08-11T17:40:45;33.60;1.00
4050;DHT22;2039;50.894;6.888;2022-08-11T17:43:31;33.20;1.00
4050;DHT22;2039;50.894;6.888;2022-08-11T17:46:16;32.90;1.00
4050;DHT22;2039;50.894;6.888;2022-08-11T17:49:09;32.90;1.00
4050;DHT22;2039;50.894;6.888;2022-08-11T17:51:56;32.90;1.00
4050;DHT22;2039;50.894;6.888;2022-08-11T17:54:43;32.70;1.00
4050;DHT22;2039;50.894;6.888;2022-08-11T17:57:29;32.40;1.00
4050;DHT22;2039;50.894;6.888;2022-08-11T18:00:14;32.30;1.00
4050;DHT22;2039;50.894;6.888;2022-08-11T18:03:04;32.20;1.00
4050;DHT22;2039;50.894;6.888;2022-08-11T18:05:49;32.10;1.00
4050;DHT22;2039;50.894;6.888;2022-08-11T18:08:18;31.80;1.00
4050;DHT22;2039;50.894;6.888;2022-08-11T18:11:03;31.60;1.00
4050;DHT22;2039;50.894;6.888;2022-08-11T18:13:48;31.50;1.00
4050;DHT22;2039;50.894;6.888;2022-08-11T18:16:33;31.30;1.00
4050;DHT22;2039;50.894;6.888;2022-08-11T18:19:17;31.20;1.00
4050;DHT22;2039;50.894;6.888;2022-08-11T18:22:12;31.20;1.00
4050;DHT22;2039;50.894;6.888;2022-08-11T18:28:07;31.00;1.00
4050;DHT22;2039;50.894;6.888;2022-08-11T18:30:59;30.80;1.00
4050;DHT22;2039;50.894;6.888;2022-08-11T18:33:55;30.90;1.00
4050;DHT22;2039;50.894;6.888;2022-08-11T18:36:50;30.90;1.00
4050;DHT22;2039;50.894;6.888;2022-08-11T18:39:43;30.70;1.00
4050;DHT22;2039;50.894;6.888;2022-08-11T18:42:29;30.60;1.00
4050;DHT22;2039;50.894;6.888;2022-08-11T18:45:15;30.60;1.00
4050;DHT22;2039;50.894;6.888;2022-08-11T18:48:12;30.40;1.00
4050;DHT22;2039;50.894;6.888;2022-08-11T18:51:01;30.30;1.00
4050;DHT22;2039;50.894;6.888;2022-08-11T18:53:56;30.20;1.00
4050;DHT22;2039;50.894;6.888;2022-08-11T18:56:41;30.00;1.00
4050;DHT22;2039;50.894;6.888;2022-08-11T18:59:32;30.00;1.00
4050;DHT22;2039;50.894;6.888;2022-08-11T19:02:19;30.00;1.00
4050;DHT22;2039;50.894;6.888;2022-08-11T19:05:06;29.90;1.00
4050;DHT22;2039;50.894;6.888;2022-08-11T19:07:57;29.80;1.00
4050;DHT22;2039;50.894;6.888;2022-08-11T19:10:46;29.70;1.00
4050;DHT22;2039;50.894;6.888;2022-08-11T19:13:32;29.60;1.00
4050;DHT22;2039;50.894;6.888;2022-08-11T19:16:18;29.50;1.00
4050;DHT22;2039;50.894;6.888;2022-08-11T19:19:04;29.30;1.00
4050;DHT22;2039;50.894;6.888;2022-08-11T19:21:51;29.20;1.00
4050;DHT22;2039;50.894;6.888;2022-08-11T19:24:37;29.10;1.00
4050;DHT22;2039;50.894;6.888;2022-08-11T19:27:25;29.00;1.00
4050;DHT22;2039;50.894;6.888;2022-08-11T19:30:12;28.80;1.00
4050;DHT22;2039;50.894;6.888;2022-08-11T19:32:58;28.70;1.00
4050;DHT22;2039;50.894;6.888;2022-08-11T19:35:43;28.60;1.00
4050;DHT22;2039;50.894;6.888;2022-08-11T19:38:29;28.50;1.00
4050;DHT22;2039;50.894;6.888;2022-08-11T19:41:14;28.40;1.00
4050;DHT22;2039;50.894;6.888;2022-08-11T19:44:05;28.30;1.00
4050;DHT22;2039;50.894;6.888;2022-08-11T19:46:50;28.10;1.00
4050;DHT22;2039;50.894;6.888;2022-08-11T19:49:36;28.10;1.00
4050;DHT22;2039;50.894;6.888;2022-08-11T19:52:21;27.90;1.00
4050;DHT22;2039;50.894;6.888;2022-08-11T19:55:06;27.90;1.00
4050;DHT22;2039;50.894;6.888;2022-08-11T19:57:52;27.80;1.00
4050;DHT22;2039;50.894;6.888;2022-08-11T20:00:37;27.70;1.00
4050;DHT22;2039;50.894;6.888;2022-08-11T20:03:22;27.60;1.00
4050;DHT22;2039;50.894;6.888;2022-08-11T20:06:08;27.50;1.00
4050;DHT22;2039;50.894;6.888;2022-08-11T20:08:58;27.40;1.00
4050;DHT22;2039;50.894;6.888;2022-08-11T20:11:46;27.40;1.00
4050;DHT22;2039;50.894;6.888;2022-08-11T20:14:34;27.30;1.00
4050;DHT22;2039;50.894;6.888;2022-08-11T20:17:23;27.30;1.00
4050;DHT22;2039;50.894;6.888;2022-08-11T20:20:10;27.20;1.00
4050;DHT22;2039;50.894;6.888;2022-08-11T20:22:59;27.10;1.00
4050;DHT22;2039;50.894;6.888;2022-08-11T20:25:44;27.10;1.00
4050;DHT22;2039;50.894;6.888;2022-08-11T20:28:31;27.10;1.00
4050;DHT22;2039;50.894;6.888;2022-08-11T20:31:17;27.20;1.00
4050;DHT22;2039;50.894;6.888;2022-08-11T20:34:04;27.10;1.00
4050;DHT22;2039;50.894;6.888;2022-08-11T20:36:50;27.10;1.00
4050;DHT22;2039;50.894;6.888;2022-08-11T20:39:36;27.00;1.00
4050;DHT22;2039;50.894;6.888;2022-08-11T20:42:22;26.90;1.00
4050;DHT22;2039;50.894;6.888;2022-08-11T20:45:09;26.80;1.00
4050;DHT22;2039;50.894;6.888;2022-08-11T20:47:55;26.80;1.00
4050;DHT22;2039;50.894;6.888;2022-08-11T20:50:44;26.70;1.00
4050;DHT22;2039;50.894;6.888;2022-08-11T20:53:31;26.60;1.00
4050;DHT22;2039;50.894;6.888;2022-08-11T20:56:18;26.60;1.00
4050;DHT22;2039;50.894;6.888;2022-08-11T20:59:02;26.50;1.00
4050;DHT22;2039;50.894;6.888;2022-08-11T21:01:47;26.40;1.00
4050;DHT22;2039;50.894;6.888;2022-08-11T21:04:31;26.30;1.00
4050;DHT22;2039;50.894;6.888;2022-08-11T21:07:17;26.30;1.00
4050;DHT22;2039;50.894;6.888;2022-08-11T21:10:05;26.30;1.00
4050;DHT22;2039;50.894;6.888;2022-08-11T21:12:52;26.20;1.00
4050;DHT22;2039;50.894;6.888;2022-08-11T21:15:38;26.10;1.00